createdAt,value
2019-04-01T00:00:08.557Z,89.63
2019-04-01T00:05:17.401Z,89.84
2019-04-01T00:10:14.646Z,90.45
2019-04-01T00:15:07.793Z,90.88
2019-04-01T00:20:10.734Z,91.1
2019-04-01T00:25:10.074Z,91.21
2019-04-01T00:30:09.844Z,91.53
2019-04-01T00:35:09.638Z,91.81
2019-04-01T00:40:11.869Z,92.16
2019-04-01T00:45:36.139Z,90.81
2019-04-01T00:50:12.346Z,90.65
2019-04-01T00:55:07.667Z,90.23
2019-04-01T01:00:10.829Z,89.78
2019-04-01T01:05:13.973Z,89.68
2019-04-01T01:10:07.213Z,89.98
2019-04-01T01:15:14.588Z,90.11
2019-04-01T01:20:15.010Z,89.93
2019-04-01T01:25:12.077Z,89.46
2019-04-01T01:30:11.714Z,88.93
2019-04-01T01:35:13.306Z,89.62
2019-04-01T01:40:17.124Z,89.6
2019-04-01T01:45:13.186Z,88.89
2019-04-01T01:50:13.485Z,89.12
2019-04-01T01:55:11.382Z,89.17
2019-04-01T02:00:10.681Z,88.78
2019-04-01T02:05:13.074Z,88.89
2019-04-01T02:10:10.908Z,89.23
2019-04-01T02:15:23.252Z,89.47
2019-04-01T02:20:18.177Z,90.55
2019-04-01T02:25:13.161Z,91.29
2019-04-01T02:30:10.886Z,91.6
2019-04-01T02:35:19.044Z,92.26
2019-04-01T02:40:22.597Z,93
2019-04-01T02:45:15.394Z,93.08
2019-04-01T02:50:16.711Z,93.47
2019-04-01T02:55:21.175Z,93.98
2019-04-01T03:00:15.862Z,94.33
2019-04-01T03:05:19.174Z,94.7
2019-04-01T03:10:06.786Z,95.13
2019-04-01T03:15:05.779Z,95.25
2019-04-01T03:20:13.332Z,95.57
2019-04-01T03:25:20.654Z,95.8
2019-04-01T03:30:20.276Z,95.89
2019-04-01T03:35:13.487Z,95.95
2019-04-01T03:40:14.278Z,95.91
2019-04-01T03:45:17.106Z,95.92
2019-04-01T03:50:18.849Z,95.98
2019-04-01T03:55:14.586Z,96.11
2019-04-01T04:00:11.459Z,96.22
2019-04-01T04:05:15.536Z,96.22
2019-04-01T04:10:11.158Z,96.43
2019-04-01T04:15:11.857Z,96.41
2019-04-01T04:20:16.536Z,96.61
2019-04-01T04:25:15.764Z,96.64
2019-04-01T04:30:12.238Z,96.86
2019-04-01T04:35:16.182Z,96.82
2019-04-01T04:40:17.199Z,96.93
2019-04-01T04:45:10.667Z,97.08
2019-04-01T04:50:08.148Z,96.98
2019-04-01T04:55:07.928Z,97.28
2019-04-01T05:00:13.859Z,97.28
2019-04-01T05:05:18.811Z,97.31
2019-04-01T05:10:27.360Z,97.41
2019-04-01T05:15:14.416Z,97.49
2019-04-01T05:20:19.033Z,97.57
2019-04-01T05:25:15.985Z,97.65
2019-04-01T05:30:11.737Z,97.68
2019-04-01T05:35:16.418Z,97.8
2019-04-01T05:40:14.945Z,97.82
2019-04-01T05:45:15.285Z,98
2019-04-01T05:50:18.229Z,94.51
2019-04-01T05:55:17.494Z,98
2019-04-01T06:00:13.256Z,96.08
2019-04-01T06:05:15.486Z,97.69
2019-04-01T06:10:08.082Z,97.79
2019-04-01T06:15:12.345Z,97.88
2019-04-01T06:20:17.215Z,97.96
2019-04-01T06:25:08.143Z,97.98
2019-04-01T06:30:07.956Z,97.25
2019-04-01T06:35:12.643Z,95.83
2019-04-01T06:40:19.322Z,94.45
2019-04-01T06:45:14.795Z,93.86
2019-04-01T06:50:19.270Z,91.28
2019-04-01T06:55:16.933Z,89.75
2019-04-01T07:00:17.625Z,91.13
2019-04-01T07:05:14.847Z,89.27
2019-04-01T07:10:17.767Z,89.44
2019-04-01T07:15:14.556Z,87.56
2019-04-01T07:20:15.826Z,87.03
2019-04-01T07:25:14.281Z,86.72
2019-04-01T07:30:12.672Z,86.5
2019-04-01T07:35:18.918Z,81.3
2019-04-01T07:40:17.028Z,79.03
2019-04-01T07:45:08.179Z,77.15
2019-04-01T07:50:19.491Z,75.91
2019-04-01T07:55:19.358Z,75.53
2019-04-01T08:00:18.724Z,76.12
2019-04-01T08:05:12.782Z,74.22
2019-04-01T08:10:14.479Z,72.62
2019-04-01T08:15:13.696Z,72.17
2019-04-01T08:20:20.083Z,70.08
2019-04-01T08:25:16.697Z,70.17
2019-04-01T08:30:06.766Z,68.03
2019-04-01T08:35:15.188Z,69.1
2019-04-01T08:40:14.971Z,67.19
2019-04-01T08:45:17.918Z,66.79
2019-04-01T08:50:17.440Z,65.37
2019-04-01T08:55:09.434Z,68
2019-04-01T09:00:08.384Z,65.92
2019-04-01T09:05:08.950Z,65.82
2019-04-01T09:10:07.782Z,67.12
2019-04-01T09:15:17.747Z,66.2
2019-04-01T09:20:12.841Z,66.24
2019-04-01T09:25:11.272Z,63.68
2019-04-01T09:30:10.817Z,64.05
2019-04-01T09:35:13.689Z,63.73
2019-04-01T09:40:16.668Z,62.78
2019-04-01T09:45:13.139Z,63.3
2019-04-01T09:50:12.023Z,62.03
2019-04-01T09:55:10.472Z,62.55
2019-04-01T10:00:11.413Z,62.15
2019-04-01T10:05:13.413Z,61.3
2019-04-01T10:10:15.088Z,60.66
2019-04-01T10:15:13.908Z,61
2019-04-01T10:20:16.445Z,60.83
2019-04-01T10:25:11.189Z,61.62
2019-04-01T10:30:14.853Z,60.4
2019-04-01T10:35:16.979Z,60.91
2019-04-01T10:40:15.720Z,59.34
2019-04-01T10:45:12.924Z,59.52
2019-04-01T10:50:11.765Z,58.6
2019-04-01T10:55:14.326Z,59.65
2019-04-01T11:00:16.028Z,59.81
2019-04-01T11:05:18.466Z,58.59
2019-04-01T11:10:15.366Z,59.3
2019-04-01T11:15:15.288Z,59.81
2019-04-01T11:20:14.674Z,59.5
2019-04-01T11:25:09.559Z,59.35
2019-04-01T11:30:13.793Z,59.85
2019-04-01T11:35:12.910Z,57.74
2019-04-01T11:40:16.038Z,58.85
2019-04-01T11:45:11.173Z,58.91
2019-04-01T11:50:06.731Z,57.72
2019-04-01T11:55:10.425Z,57.3
2019-04-01T12:00:11.445Z,56.1
2019-04-01T12:05:09.953Z,56.08
2019-04-01T12:10:14.885Z,56.69
2019-04-01T12:15:19.083Z,55.86
2019-04-01T12:20:15.564Z,55.36
2019-04-01T12:25:14.527Z,56.82
2019-04-01T12:30:15.256Z,54.96
2019-04-01T12:35:19.290Z,55.11
2019-04-01T12:40:12.724Z,54.01
2019-04-01T12:45:15.131Z,52.86
2019-04-01T12:50:15.480Z,52.23
2019-04-01T12:55:15.812Z,52.13
2019-04-01T13:00:13.575Z,54.63
2019-04-01T13:05:13.721Z,53.74
2019-04-01T13:10:13.163Z,51.42
2019-04-01T13:15:12.966Z,51.77
2019-04-01T13:20:17.720Z,52.24
2019-04-01T13:25:14.044Z,51.76
2019-04-01T13:30:14.970Z,50.48
2019-04-01T13:35:18.035Z,51.2
2019-04-01T13:40:19.482Z,52.16
2019-04-01T13:45:14.699Z,51.94
2019-04-01T13:50:18.162Z,51.91
2019-04-01T13:55:17.458Z,48.94
2019-04-01T14:00:12.676Z,49.93
2019-04-01T14:05:16.063Z,50.35
2019-04-01T14:10:08.804Z,49.89
2019-04-01T14:15:06.216Z,50.35
2019-04-01T14:20:14.297Z,49.08
2019-04-01T14:25:13.964Z,49.61
2019-04-01T14:30:11.049Z,51.3
2019-04-01T14:35:10.251Z,52.3
2019-04-01T14:40:15.686Z,53.76
2019-04-01T14:45:11.984Z,51.16
2019-04-01T14:50:10.331Z,48.98
2019-04-01T14:55:09.409Z,47.32
2019-04-01T15:00:10.302Z,45.92
2019-04-01T15:05:13.076Z,47.68
2019-04-01T15:10:11.326Z,48.68
2019-04-01T15:15:14.005Z,51.06
2019-04-01T15:20:14.310Z,48.53
2019-04-01T15:25:12.042Z,47.68
2019-04-01T15:30:14.534Z,47.17
2019-04-01T15:35:13.901Z,46.6
2019-04-01T15:40:13.904Z,46.07
2019-04-01T15:45:14.846Z,45.77
2019-04-01T15:50:28.099Z,47
2019-04-01T15:55:10.890Z,48.2
2019-04-01T16:00:19.237Z,48.62
2019-04-01T16:05:15.261Z,49.17
2019-04-01T16:10:07.052Z,49.51
2019-04-01T16:15:12.523Z,49.05
2019-04-01T16:20:14.025Z,49.52
2019-04-01T16:25:13.152Z,48.29
2019-04-01T16:30:12.363Z,48.55
2019-04-01T16:35:11.163Z,48.99
2019-04-01T16:40:08.627Z,48.87
2019-04-01T16:45:07.346Z,48.46
2019-04-01T16:50:08.802Z,48.63
2019-04-01T16:55:07.217Z,49.68
2019-04-01T17:00:08.274Z,49.97
2019-04-01T17:05:11.415Z,50.2
2019-04-01T17:10:17.699Z,50.57
2019-04-01T17:15:14.194Z,51.06
2019-04-01T17:20:13.489Z,51.1
2019-04-01T17:25:13.140Z,51.32
2019-04-01T17:30:15.545Z,51.72
2019-04-01T17:35:18.636Z,52.32
2019-04-01T17:40:11.823Z,52.51
2019-04-01T17:45:15.996Z,52.93
2019-04-01T17:50:15.963Z,53.55
2019-04-01T17:55:11.605Z,53.96
2019-04-01T18:00:13.875Z,54.28
2019-04-01T18:05:13.209Z,54.6
2019-04-01T18:10:08.578Z,54.84
2019-04-01T18:15:10.928Z,55.2
2019-04-01T18:20:10.264Z,55.27
2019-04-01T18:25:07.884Z,55.84
2019-04-01T18:30:08.218Z,56.11
2019-04-01T18:35:06.944Z,56.87
2019-04-01T18:40:06.783Z,57.58
2019-04-01T18:45:03.929Z,58.01
2019-04-01T18:50:06.165Z,58.27
2019-04-01T18:55:10.622Z,58.25
2019-04-01T19:00:03.139Z,58.31
2019-04-01T19:05:06.729Z,58.5
2019-04-01T19:10:11.155Z,58.56
2019-04-01T19:15:03.812Z,58.55
2019-04-01T19:20:06.492Z,58.69
2019-04-01T19:25:07.834Z,58.7
2019-04-01T19:30:03.385Z,58.89
2019-04-01T19:35:09.376Z,59.14
2019-04-01T19:40:07.216Z,59.45
2019-04-01T19:45:02.812Z,59.59
2019-04-01T19:50:07.234Z,59.59
2019-04-01T19:55:06.983Z,59.69
2019-04-01T20:00:02.749Z,59.97
2019-04-01T20:05:07.349Z,60.04
2019-04-01T20:10:07.674Z,59.98
2019-04-01T20:15:03.395Z,59.72
2019-04-01T20:20:06.656Z,59.83
2019-04-01T20:25:07.738Z,59.79
2019-04-01T20:30:03.328Z,59.93
2019-04-01T20:35:06.157Z,60.26
2019-04-01T20:40:07.003Z,60.83
2019-04-01T20:45:02.562Z,61.2
2019-04-01T20:50:06.214Z,61.33
2019-04-01T20:55:04.121Z,61.69
2019-04-01T21:00:02.714Z,61.91
2019-04-01T21:05:04.773Z,62.15
2019-04-01T21:10:08.694Z,62.46
2019-04-01T21:15:04.307Z,62.67
2019-04-01T21:20:06.858Z,62.94
2019-04-01T21:25:08.975Z,63.3
2019-04-01T21:30:03.738Z,63.37
2019-04-01T21:35:08.950Z,63.68
2019-04-01T21:40:10.039Z,63.98
2019-04-01T21:45:03.659Z,64.27
2019-04-01T21:50:08.971Z,64.39
2019-04-01T21:55:11.938Z,64.62
2019-04-01T22:00:03.775Z,64.72
2019-04-01T22:05:10.809Z,64.9
2019-04-01T22:10:08.441Z,64.73
2019-04-01T22:15:03.998Z,64.73
2019-04-01T22:20:09.382Z,64.84
2019-04-01T22:25:08.362Z,64.84
2019-04-01T22:30:03.995Z,65.66
2019-04-01T22:35:08.708Z,65.95
2019-04-01T22:40:08.245Z,65.42
2019-04-01T22:45:04.379Z,65.85
2019-04-01T22:50:07.763Z,66.14
2019-04-01T22:55:07.817Z,66.12
2019-04-01T23:00:04.527Z,65.85
2019-04-01T23:05:09.739Z,65.77
2019-04-01T23:10:23.140Z,65.57
2019-04-01T23:15:07.298Z,65.66
2019-04-01T23:20:10.240Z,65.76
2019-04-01T23:25:06.814Z,65.74
2019-04-01T23:30:06.851Z,65.75
2019-04-01T23:35:07.598Z,65.92
2019-04-01T23:40:08.472Z,65.92
2019-04-01T23:45:04.112Z,66.1
2019-04-01T23:50:06.947Z,66.32
2019-04-01T23:55:07.945Z,66.54
